Date,TemperatureHighF,TemperatureAvgF,TemperatureLowF,DewpointHighF,DewpointAvgF,DewpointLowF,HumidityHigh,HumidityAvg,HumidityLow,PressureMaxIn,PressureMinIn,WindSpeedMaxMPH,WindSpeedAvgMPH,GustSpeedMaxMPH,PrecipitationSumIn
2012-1-1,80,71,64,66,62,58,85,74,57,30.17,30.09,8,2,8,0.00
2012-1-2,78,68,59,65,59,42,86,74,48,30.12,29.99,13,2,13,0.00
2012-1-3,60,52,44,46,30,17,65,45,21,30.28,30.09,14,4,14,0.00
2012-1-4,65,56,44,52,44,20,69,63,24,30.29,30.18,10,3,10,0.00
2012-1-5,67,58,50,44,36,22,69,48,18,30.21,30.13,8,2,8,0.00
2012-1-6,70,60,51,57,50,43,82,71,58,30.16,30.08,8,1,8,0.00
2012-1-7,73,64,56,57,55,51,86,72,55,30.13,30.06,9,1,9,0.00
2012-1-8,76,67,58,62,57,53,84,71,57,30.16,30.09,10,2,10,0.00
2012-1-9,80,73,69,65,62,60,77,69,58,30.14,30.04,10,4,11,0.00
2012-1-10,79,71,64,65,61,58,83,71,56,30.05,29.95,8,2,8,0.00
2012-1-11,76,72,65,68,65,60,87,81,67,29.97,29.76,13,3,14,0.00
2012-1-12,78,73,68,67,65,62,89,79,67,29.93,29.78,10,2,10,0.00
2012-1-13,74,70,66,64,62,55,83,75,66,30.09,29.93,7,1,7,0.00
2012-1-14,66,60,57,55,44,37,68,56,44,30.22,30.09,9,3,9,0.00
2012-1-27,80,73,70,72,67,66,85,80,71,30.02,29.95,2,0,5,0.00
2012-1-28,82,75,69,70,67,64,87,76,67,30.09,29.95,8,2,8,0.00
2012-1-29,78,73,70,66,63,60,81,72,62,30.17,30.06,11,4,11,0.00
2012-1-30,79,73,70,63,60,58,69,64,55,30.23,30.13,13,6,13,0.00
2012-1-31,79,73,69,64,61,58,77,67,58,30.25,30.13,10,5,10,0.00
2012-2-1,81,76,71,68,66,63,81,72,59,30.20,30.07,10,5,10,0.00
2012-2-2,74,72,69,70,68,65,89,87,82,30.09,30.01,7,2,7,0.36
2012-2-3,80,74,70,69,66,63,89,77,67,30.12,30.01,14,5,14,0.00
2012-2-4,80,75,72,70,67,64,86,78,70,30.11,29.99,14,7,14,0.08
2012-2-5,82,76,73,71,69,67,85,78,67,30.03,29.95,9,4,10,0.00
2012-2-6,81,75,71,73,70,67,89,84,75,30.00,29.93,13,4,13,1.00
2012-2-7,81,75,72,74,71,68,90,85,77,29.96,29.88,10,4,10,0.50
2012-2-8,80,73,70,71,68,64,90,83,72,30.00,29.91,10,3,10,0.00
2012-2-9,78,73,69,68,66,63,85,79,70,30.03,29.93,14,5,14,0.00
2012-2-10,79,74,72,74,70,67,90,87,82,30.01,29.83,14,5,14,1.69
2012-2-11,73,70,68,68,63,55,90,80,59,29.90,29.80,13,4,13,0.28
2012-2-12,71,56,51,46,43,36,74,62,52,30.17,29.88,14,5,14,0.00
2012-2-13,71,60,50,53,48,44,81,66,47,30.14,30.06,12,3,12,0.00
2012-2-15,80,79,78,66,65,64,64,62,59,30.09,30.08,6,5,10,0.00
2012-2-16,83,77,72,68,67,65,80,70,60,30.12,30.03,13,6,13,0.00
2012-2-17,82,75,69,70,67,64,87,77,64,30.14,29.94,12,2,12,0.00
2012-2-18,83,76,68,70,68,64,87,77,64,29.96,29.88,13,3,13,0.00
2012-2-19,87,78,71,73,70,65,89,77,57,29.90,29.81,13,4,13,0.00
2012-2-20,75,70,64,65,59,56,79,69,55,30.10,29.90,12,4,12,0.00
2012-2-21,80,72,67,61,58,54,69,61,52,30.14,30.06,12,5,12,0.00
2012-2-22,80,73,65,66,63,59,84,72,60,30.09,29.93,15,4,15,0.00
2012-2-23,86,75,67,73,67,62,88,78,57,29.96,29.89,12,2,12,0.00
2012-2-24,85,76,69,74,70,64,91,81,67,30.00,29.91,20,4,20,0.00
2012-2-25,80,74,70,74,67,63,90,79,65,30.13,29.95,14,4,14,0.00
2012-2-26,78,74,71,69,66,64,81,77,71,30.17,30.11,13,6,13,0.00
2012-2-27,85,78,73,73,70,67,86,77,64,30.21,30.11,16,7,16,0.00
2012-2-28,85,78,74,72,70,68,83,75,63,30.19,30.13,12,4,12,0.00
2012-2-29,85,78,74,72,70,68,83,75,65,30.14,30.06,14,6,14,0.00
2012-3-1,86,78,73,73,70,68,86,77,63,30.07,29.98,14,5,14,0.00
2012-3-2,87,77,70,72,69,66,88,77,60,30.00,29.94,16,4,16,0.00
2012-3-3,85,78,74,80,51,-31,99,65,1,29.94,29.84,22,7,22,0.00
2012-3-4,83,72,59,76,52,-32,99,52,16,30.13,29.80,28,4,28,0.08
2012-3-5,74,65,56,57,50,40,72,58,49,30.26,30.11,13,4,13,0.00
2012-3-6,80,72,61,63,57,51,73,61,48,30.29,30.19,16,7,16,0.00
2012-3-7,80,74,69,67,63,58,76,69,62,30.28,30.18,18,9,18,0.00
2012-3-8,80,75,73,70,67,64,77,75,71,30.18,30.07,15,8,15,0.34
2012-3-9,85,78,73,72,68,65,78,73,63,30.11,30.03,15,6,15,0.00
2012-3-10,85,77,71,71,67,63,79,73,59,30.13,30.03,13,4,13,0.00
2012-3-11,85,76,72,71,67,64,80,72,60,30.19,30.10,14,8,14,0.33
2012-3-12,82,76,71,66,63,61,74,65,51,30.21,30.13,13,6,13,0.00
2012-3-13,83,76,71,64,62,60,69,62,50,30.17,30.11,12,3,12,0.00
2012-3-14,83,77,72,68,64,62,75,66,56,30.15,30.08,9,2,9,0.00
2012-3-15,85,76,72,70,67,64,80,72,59,30.14,30.06,18,6,18,0.06
2012-3-16,84,76,72,67,65,63,77,68,55,30.16,30.07,9,5,9,0.00
2012-3-17,83,76,69,66,64,61,77,66,55,30.15,30.07,10,4,10,0.00
2012-3-18,86,77,72,69,65,62,74,67,56,30.16,30.07,14,5,14,0.00
2012-3-19,84,77,72,65,63,60,78,64,48,30.12,30.03,10,5,10,0.00
2012-3-20,85,78,73,68,66,63,75,67,50,30.06,29.98,12,6,12,0.00
2012-3-21,88,79,74,71,68,66,80,69,56,30.10,29.99,19,9,19,0.00
2012-3-22,86,79,74,70,67,66,77,68,54,30.11,30.04,14,7,14,0.00
2012-3-23,86,78,73,68,66,64,79,66,53,30.08,30.00,9,5,9,0.00
2012-3-24,87,78,69,70,66,63,81,67,54,30.00,29.91,14,5,14,0.00
2012-3-25,88,79,71,70,66,63,80,67,49,29.93,29.79,41,3,41,0.00
2012-3-26,85,75,66,63,59,53,77,60,35,29.96,29.84,10,3,10,0.00
2012-3-27,86,77,70,70,64,61,77,65,54,30.12,29.93,12,4,12,0.00
2012-3-28,86,77,72,68,64,60,70,63,51,30.12,30.03,16,7,16,0.00
2012-3-29,86,77,71,65,63,61,75,64,50,30.04,29.96,11,4,11,0.00
2012-3-30,86,76,67,66,63,60,79,64,48,30.04,29.95,12,4,12,0.00
2012-3-31,88,77,69,73,68,62,83,74,60,29.99,29.85,18,4,18,1.51
2012-4-1,86,76,69,72,68,65,86,76,59,29.91,29.84,8,3,8,0.00
2012-4-2,88,78,70,73,69,65,84,74,61,29.89,29.83,9,2,9,0.00
2012-4-3,89,79,70,74,69,64,82,71,58,29.95,29.86,9,3,9,0.00
2012-4-4,89,79,72,74,70,67,84,73,58,29.95,29.81,20,4,20,0.00
2012-4-5,89,79,73,71,67,64,81,68,46,29.86,29.72,15,3,15,0.00
2012-4-6,89,80,74,74,69,64,84,71,50,29.87,29.72,14,4,14,0.08
2012-4-7,84,77,72,68,64,60,79,66,55,30.06,29.86,14,4,14,0.00
2012-4-8,84,76,70,62,59,56,67,57,46,30.11,30.04,9,3,9,0.00
2012-4-9,86,76,69,66,62,60,75,62,47,30.05,29.98,12,4,12,0.00
2012-4-10,86,77,68,65,62,59,78,61,46,30.04,29.96,9,3,9,0.00
2012-4-11,87,77,68,66,64,61,80,65,43,30.01,29.93,10,2,10,0.00
2012-4-12,87,78,69,71,66,61,77,68,47,30.01,29.92,9,3,9,0.33
2012-4-13,83,76,72,71,67,65,82,75,66,30.08,29.96,12,5,12,0.50
2012-4-14,85,76,72,67,64,61,82,67,50,30.17,30.03,17,10,17,0.00
2012-4-15,87,78,72,65,62,58,67,58,45,30.17,30.10,16,8,16,0.00
2012-4-16,88,79,74,65,61,57,72,55,44,30.16,30.06,16,8,16,0.00
2012-4-17,87,79,74,67,63,60,72,60,42,30.12,30.04,12,6,12,0.00
2012-4-18,88,79,74,69,66,64,74,65,51,30.06,29.95,13,6,13,0.00
2012-4-19,88,80,75,71,69,67,76,69,57,29.97,29.88,14,6,14,0.00
2012-4-20,90,80,72,74,69,66,82,72,57,29.92,29.82,15,5,15,0.72
2012-4-21,78,74,71,70,68,66,86,80,73,29.89,29.67,17,6,17,0.45
2012-4-22,82,76,69,73,67,63,85,75,58,29.72,29.54,18,5,18,0.87
2012-4-23,84,73,64,63,56,50,79,58,39,29.89,29.71,13,4,13,0.00
2012-4-24,80,68,59,53,49,42,74,51,27,30.00,29.86,9,2,9,0.00
2012-4-25,84,71,58,61,54,47,69,55,42,30.07,29.96,12,4,12,0.00
2012-4-26,87,75,64,65,61,56,77,63,47,30.09,30.03,10,4,10,0.00
2012-4-27,88,78,69,70,66,61,78,66,51,30.07,30.00,9,3,9,0.00
2012-4-28,83,77,73,72,69,66,86,78,63,30.05,29.99,14,3,14,1.31
2012-4-29,77,75,72,71,68,66,86,81,69,30.03,29.95,17,5,17,0.25
2012-4-30,78,74,72,70,68,66,85,81,77,30.00,29.93,18,9,18,0.19
2012-5-1,85,77,73,74,70,68,86,78,66,30.02,29.94,15,8,15,0.53
2012-5-2,88,80,76,74,70,69,83,74,61,30.06,29.96,15,7,15,0.03
2012-5-3,90,81,75,74,71,67,78,70,58,30.06,29.99,15,7,15,0.00
2012-5-4,90,81,76,72,69,67,77,68,53,30.06,29.97,10,5,10,0.00
2012-5-5,91,82,75,73,70,67,80,68,53,29.99,29.91,12,4,12,0.00
2012-5-6,92,81,73,76,71,67,83,72,57,29.95,29.87,13,3,13,0.00
2012-5-7,92,82,74,75,71,68,83,71,57,29.91,29.84,14,4,14,0.00
2012-5-8,87,79,74,74,70,66,81,75,64,29.90,29.84,14,2,14,0.19
2012-5-9,89,80,74,76,72,67,83,75,65,29.88,29.79,14,3,14,0.28
2012-5-10,93,81,75,77,72,69,85,75,56,29.87,29.77,8,2,8,0.00
2012-5-11,88,81,74,76,72,68,83,74,65,30.04,29.85,10,3,10,0.03
2012-5-12,87,82,77,73,71,69,77,70,59,30.12,30.02,13,6,13,0.00
2012-5-14,79,78,78,70,70,70,77,77,77,29.97,29.97,9,9,9,0.06
2012-5-15,88,81,76,77,73,69,84,76,68,29.99,29.91,13,3,13,0.19
2012-5-16,83,79,74,75,71,68,85,78,68,29.99,29.90,5,1,5,0.00
2012-5-17,83,79,73,74,71,66,83,77,70,29.94,29.84,12,3,12,0.34
2012-5-18,89,79,74,75,70,66,84,74,61,29.92,29.85,15,2,15,0.64
2012-5-19,88,77,72,76,70,66,84,79,67,29.94,29.85,12,1,12,0.70
2012-5-20,88,80,72,76,71,66,85,75,63,29.94,29.87,9,2,9,0.03
2012-5-21,90,82,74,76,72,67,81,70,60,29.95,29.88,8,3,8,0.03
2012-5-22,82,78,75,74,71,68,83,78,73,29.95,29.87,12,3,12,0.62
2012-5-23,85,80,76,76,72,69,84,78,72,29.90,29.84,14,5,14,0.22
2012-5-24,83,78,75,75,71,68,85,80,74,29.87,29.81,14,2,14,0.62
2012-5-25,90,82,73,78,73,67,86,75,65,29.99,29.84,8,2,8,0.00
2012-5-26,91,84,77,78,74,71,84,74,65,29.99,29.93,8,2,8,0.00
2012-5-27,93,82,76,77,73,69,84,75,58,29.94,29.83,17,3,17,0.64
2012-5-28,89,82,77,78,73,69,83,76,67,29.95,29.86,16,4,16,0.11
2012-5-29,90,83,76,79,74,70,85,75,65,29.95,29.87,18,2,18,0.00
2012-5-30,96,84,75,78,74,69,84,71,52,29.92,29.81,14,3,14,0.00
2012-5-31,88,82,78,75,73,71,81,75,64,29.93,29.84,14,2,14,0.25
2012-6-1,85,79,76,76,73,70,85,82,75,29.95,29.85,10,2,10,0.81
2012-6-2,92,83,77,79,75,71,86,76,64,29.95,29.85,7,1,7,0.03
2012-6-3,93,84,76,76,72,69,83,68,51,30.00,29.91,8,2,8,0.00
2012-6-4,97,87,77,80,74,69,80,66,51,29.97,29.84,13,2,13,0.00
2012-6-5,92,83,79,78,74,72,83,76,62,29.87,29.79,9,2,9,0.06
2012-6-6,87,82,78,78,74,71,84,76,65,29.93,29.85,14,1,14,0.00
2012-6-7,91,85,81,80,76,74,84,74,61,29.94,29.88,9,2,9,0.00
2012-6-8,92,82,77,80,74,70,83,77,67,29.95,29.88,13,1,13,1.98
2012-6-9,91,82,77,79,74,72,86,78,66,30.00,29.90,10,2,10,0.06
2012-6-10,92,86,79,79,76,74,84,74,65,30.08,29.95,14,4,14,0.00
2012-6-11,92,86,81,76,73,69,76,67,55,30.08,29.99,9,4,9,0.00
2012-6-12,92,85,79,73,70,68,71,62,52,30.04,29.95,8,3,8,0.00
2012-6-13,92,84,75,76,72,68,80,67,56,29.96,29.87,14,2,14,0.00
2012-6-14,94,87,77,79,75,69,79,69,58,29.97,29.87,8,2,8,0.14
2012-6-15,92,83,77,79,75,70,82,75,64,30.02,29.87,10,2,10,0.11
2012-6-17,90,86,80,72,69,66,64,57,52,30.07,30.01,11,4,11,0.00
2012-6-18,91,84,78,72,69,67,73,61,52,30.10,30.00,10,5,10,0.06
2012-6-19,89,82,79,75,71,68,75,69,62,30.11,30.04,13,7,13,0.08
2012-6-20,83,79,76,74,72,71,84,81,74,30.08,30.01,17,5,17,2.04
2012-6-21,89,82,76,77,74,71,85,76,65,30.06,29.96,13,5,13,0.53
2012-6-22,87,82,77,77,74,71,83,78,71,30.02,29.92,10,4,10,0.33
2012-6-23,86,80,76,78,74,70,84,80,74,30.08,29.93,13,4,13,0.67
2012-6-24,82,79,77,77,74,71,87,84,81,30.06,29.93,16,8,16,2.01
2012-6-25,90,84,81,79,76,75,84,78,66,29.94,29.57,17,8,17,0.00
2012-6-26,94,86,81,78,75,72,81,70,57,29.77,29.70,18,5,18,0.14
2012-6-27,92,85,81,79,76,72,81,73,63,29.96,29.73,16,5,16,0.00
2012-6-28,92,85,76,78,73,68,78,69,60,30.03,29.94,8,3,8,0.00
2012-6-29,93,86,77,78,73,70,79,67,54,30.01,29.92,10,4,10,0.00
2012-6-30,94,87,80,80,75,72,79,69,56,29.97,29.89,10,3,10,0.00
2012-7-1,94,87,81,80,76,73,79,69,59,30.04,29.94,14,3,14,0.00
2012-7-2,94,87,80,80,76,72,81,70,57,30.07,29.96,8,1,8,0.00
2012-7-3,94,87,79,80,76,72,81,71,60,30.04,29.96,10,3,10,0.00
2012-7-4,94,88,81,80,77,74,81,71,61,30.04,29.97,12,3,12,0.00
2012-7-5,94,86,79,79,75,72,80,70,58,30.02,29.96,14,2,14,0.00
2012-7-6,94,87,80,79,76,72,78,69,61,30.02,29.96,10,4,10,0.00
2012-7-7,94,88,82,79,76,73,78,69,59,30.05,29.98,10,4,10,0.00
2012-7-8,94,87,81,80,76,74,80,70,62,30.04,29.99,9,3,9,0.00
2012-7-9,92,86,80,79,76,72,81,71,63,30.03,29.95,9,3,9,0.00
2012-7-10,93,86,79,79,76,72,82,72,63,30.01,29.93,14,3,14,0.76
2012-7-11,93,80,77,75,72,71,84,78,68,30.03,29.92,10,2,9,1.70
2012-7-12,89,82,77,78,74,72,85,75,64,30.01,29.93,7,1,7,0.22
2012-7-13,91,85,79,77,75,72,80,71,63,30.03,29.95,12,4,12,0.00
2012-7-14,91,86,82,78,75,72,75,70,62,30.04,29.94,14,6,14,0.03
2012-7-15,91,83,77,77,74,70,81,73,59,30.08,29.99,12,2,12,0.73
2012-7-16,86,79,76,76,72,70,84,80,71,30.06,29.96,9,2,9,0.62
2012-7-17,90,80,76,79,74,70,85,80,68,30.02,29.93,12,1,12,0.73
2012-7-18,93,84,75,80,75,70,85,76,64,30.09,29.96,14,3,14,0.03
2012-7-19,94,87,80,80,77,74,84,73,62,30.14,30.07,12,4,12,0.00
2012-7-20,93,87,82,80,77,73,77,71,64,30.10,30.00,14,5,14,0.00
2012-7-21,93,88,82,80,77,74,78,72,65,30.07,29.99,10,5,10,0.00
2012-7-22,90,82,77,79,75,70,84,78,70,30.09,30.00,16,4,16,1.71
2012-7-23,90,82,77,78,75,71,84,78,67,30.12,30.04,12,3,12,0.31
2012-7-24,93,86,81,81,77,69,83,75,63,30.10,29.99,20,4,20,0.00
2012-7-25,94,86,79,81,76,72,83,72,62,30.03,29.96,10,3,10,0.00
2012-7-26,94,87,79,80,76,72,81,71,62,30.02,29.94,9,3,9,0.00
2012-7-27,94,87,80,80,76,73,80,70,60,30.06,29.96,10,2,10,0.00
2012-7-28,93,87,79,80,76,72,81,70,61,30.07,30.00,10,3,10,0.00
2012-7-29,94,87,78,79,75,71,80,68,58,30.06,29.97,12,2,12,0.00
2012-7-30,95,87,80,79,75,70,79,68,59,30.02,29.95,5,0,5,0.00
2012-7-31,94,86,78,79,74,70,78,68,56,30.02,29.94,12,3,12,0.00
2012-8-1,95,86,80,80,75,70,80,70,57,30.00,29.92,13,3,13,0.03
2012-8-2,95,87,80,80,77,73,83,71,59,29.97,29.90,12,3,12,0.00
2012-8-3,96,85,81,81,76,72,78,74,63,29.98,29.88,17,3,17,0.17
2012-8-4,93,85,79,80,76,73,84,74,65,30.02,29.88,14,4,14,0.00
2012-8-5,94,87,82,80,77,73,78,71,63,30.05,29.97,12,6,12,0.00
2012-8-6,90,83,78,79,75,71,83,78,69,30.04,29.96,14,4,14,2.01
2012-8-7,93,86,78,80,77,71,84,74,63,30.02,29.93,12,5,12,0.09
2012-8-8,94,88,82,80,77,74,78,71,63,30.02,29.94,9,4,9,0.00
2012-8-9,94,88,83,80,77,75,76,70,63,30.00,29.91,13,6,13,0.00
2012-8-10,89,84,81,78,74,72,77,74,69,29.97,29.90,14,4,14,0.25
2012-8-11,91,83,78,79,74,71,81,75,67,30.00,29.90,12,3,12,0.14
2012-8-12,92,83,78,79,75,72,84,78,63,30.02,29.93,12,1,12,0.28
2012-8-13,93,85,78,81,76,72,86,76,65,30.04,29.97,9,2,9,0.03
2012-8-14,93,86,80,81,77,74,84,74,64,30.02,29.94,31,2,31,0.08
2012-8-15,94,87,81,81,77,74,83,73,63,30.01,29.94,12,4,12,0.00
2012-8-16,94,87,81,80,77,74,82,73,64,30.05,29.96,10,2,10,0.00
2012-8-17,94,85,79,79,75,69,81,73,60,30.02,29.93,14,2,14,0.37
2012-8-18,96,83,77,79,75,72,84,76,56,29.97,29.90,10,1,10,1.34
2012-8-19,92,84,79,80,76,74,84,77,66,29.98,29.90,14,3,14,0.03
2012-8-20,93,86,80,81,76,73,83,74,63,29.99,29.89,16,3,16,0.03
2012-8-21,94,85,80,79,75,72,81,73,61,30.05,29.95,14,2,14,0.03
2012-8-22,93,83,77,81,74,70,82,74,64,30.05,29.96,9,2,9,0.00
2012-8-23,93,86,78,80,75,71,83,72,62,30.04,29.98,8,3,8,0.00
2012-8-24,93,84,76,79,74,70,81,73,64,30.01,29.91,12,4,12,1.63
2012-8-25,85,80,74,78,73,67,84,80,76,29.94,29.86,14,4,14,0.19
2012-8-26,84,80,77,77,74,72,88,83,75,29.87,29.71,30,10,30,6.32
2012-8-27,86,81,76,79,76,72,88,83,76,29.92,29.73,25,12,25,2.88
2012-8-28,91,84,78,81,77,73,86,80,70,29.98,29.89,16,6,16,0.20
2012-8-29,92,86,81,80,77,74,82,75,68,29.98,29.91,13,6,13,0.00
2012-8-30,93,86,80,80,77,74,82,74,66,30.06,29.93,10,3,10,0.00
2012-8-31,92,86,82,80,77,74,81,73,65,30.11,30.02,7,1,7,0.00
2012-9-1,92,86,80,80,76,74,84,74,66,30.07,29.98,10,3,10,0.22
2012-9-2,91,85,80,77,73,70,75,68,58,30.01,29.95,10,3,10,0.00
2012-9-3,91,84,78,78,74,70,79,70,61,30.01,29.93,10,3,10,0.00
2012-9-4,91,84,78,78,73,69,80,71,62,30.00,29.92,10,3,10,0.00
2012-9-5,89,82,78,78,73,71,81,76,67,29.98,29.91,14,4,14,0.31
2012-9-6,81,76,75,71,70,69,82,79,72,30.00,29.94,12,0,12,1.20
2012-9-7,90,81,75,79,74,69,86,77,65,29.98,29.90,9,2,9,0.17
2012-9-8,92,84,77,79,75,70,83,74,64,29.95,29.87,14,3,14,0.00
2012-9-9,96,87,79,79,75,72,80,68,50,29.95,29.86,10,2,10,0.00
2012-9-10,87,83,79,78,75,72,81,77,71,29.98,29.89,9,1,9,0.45
2012-9-11,91,82,77,80,75,72,86,78,68,30.03,29.94,9,3,9,0.17
2012-9-12,90,84,78,77,74,71,82,72,66,30.03,29.95,17,5,17,0.84
2012-9-13,86,82,78,75,73,72,84,74,68,30.03,29.94,13,6,13,0.45
2012-9-14,90,84,78,78,74,71,81,74,65,29.99,29.93,14,3,14,0.00
2012-9-15,88,82,77,78,74,71,84,76,69,30.01,29.94,9,3,9,0.62
2012-9-16,87,82,80,76,73,70,77,74,68,30.01,29.94,13,4,13,0.06
2012-9-17,88,82,80,77,74,72,79,76,70,29.99,29.90,10,4,10,0.03
2012-9-18,93,84,78,80,75,72,83,75,64,29.96,29.87,14,3,14,0.06
2012-9-19,90,83,78,79,75,72,84,76,65,30.03,29.88,8,2,8,0.00
2012-9-20,91,84,77,78,74,70,82,72,63,30.02,29.91,7,2,7,0.00
2012-9-21,90,82,77,77,73,71,82,76,64,29.95,29.88,16,1,16,1.26
2012-9-22,89,78,75,75,72,70,85,83,64,29.99,29.89,8,1,8,2.07
2012-9-23,84,79,76,76,73,71,87,82,75,30.01,29.95,6,1,6,0.00
2012-9-24,86,80,76,76,72,70,86,78,69,30.02,29.95,9,1,9,0.00
2012-9-25,86,80,76,76,72,69,82,76,70,30.04,29.95,14,1,14,0.00
2012-9-26,88,83,80,76,73,71,77,74,68,30.06,29.96,7,2,7,0.00
2012-9-27,90,84,78,79,75,70,82,74,66,30.04,29.96,10,2,10,0.06
2012-9-28,89,82,78,78,74,72,85,78,69,29.99,29.90,9,1,9,0.00
2012-9-29,89,83,77,78,74,71,85,76,69,29.93,29.83,12,2,12,0.75
2012-9-30,90,84,77,79,75,71,83,75,66,29.88,29.79,10,3,10,0.00
2012-10-1,89,82,77,78,74,72,83,77,68,29.85,29.74,14,3,14,1.09
2012-10-2,86,80,76,78,73,70,86,82,74,30.02,29.83,13,3,13,0.76
2012-10-3,90,83,77,80,76,72,86,79,71,30.11,30.00,12,3,12,0.00
2012-10-4,90,85,81,80,76,74,81,76,69,30.11,30.03,10,3,10,0.00
2012-10-5,91,85,81,79,76,74,80,73,65,30.05,29.91,9,3,9,0.00
2012-10-6,91,85,78,78,75,70,79,73,65,29.95,29.83,9,2,9,1.62
2012-10-7,83,79,76,76,73,70,84,81,77,29.94,29.84,7,1,7,0.17
2012-10-8,88,83,79,78,75,71,82,77,71,29.98,29.88,7,1,7,0.00
2012-10-9,89,83,78,78,75,72,85,76,67,29.99,29.91,8,2,8,0.00
2012-10-10,82,81,80,74,73,72,78,78,77,29.98,29.95,4,1,4,0.00
2012-10-15,88,84,80,76,74,71,77,70,65,29.95,29.77,11,4,11,0.00
2012-10-16,87,81,75,75,72,69,82,73,63,29.82,29.76,12,2,12,0.00
2012-10-17,87,79,74,76,71,68,81,77,68,29.88,29.79,9,2,9,1.57
2012-10-18,86,81,74,77,73,68,84,79,73,29.85,29.78,12,3,12,0.06
2012-10-19,86,81,77,77,74,71,85,79,71,29.87,29.79,10,2,10,0.17
2012-10-20,84,79,75,74,71,68,84,78,69,29.90,29.82,10,2,10,0.03
2012-10-21,86,78,71,68,66,62,83,67,53,29.97,29.86,10,3,10,0.00
2012-10-22,87,80,76,70,67,63,69,64,54,29.99,29.92,13,5,13,0.00
2012-10-23,87,80,76,74,69,63,81,68,61,29.96,29.90,14,6,14,0.00
2012-10-24,86,80,74,73,71,69,86,73,61,29.94,29.83,16,7,16,0.42
2012-10-25,84,79,72,73,71,66,87,76,69,29.83,29.64,20,8,20,0.39
2012-10-26,81,75,71,72,68,66,88,81,68,29.64,29.47,32,7,32,0.47
2012-10-27,83,75,70,67,65,63,84,72,58,29.57,29.45,20,8,20,0.00
2012-10-28,81,77,69,67,63,57,67,63,59,29.77,29.66,14,5,14,0.00
2012-10-29,73,67,62,58,52,46,71,58,39,29.83,29.73,15,5,15,0.00
2012-10-30,73,64,57,52,48,43,72,57,42,29.95,29.78,15,3,15,0.00
2012-10-31,74,65,57,56,53,49,82,66,48,30.00,29.94,9,1,9,0.00
2012-11-1,79,68,59,65,59,52,82,72,57,30.01,29.93,8,1,8,0.00
2012-11-2,80,71,66,64,59,52,85,66,39,30.03,29.96,7,1,7,0.00
2012-11-3,79,70,61,64,59,54,80,68,47,30.08,30.00,7,1,7,0.00
2012-11-4,82,72,65,67,63,58,82,72,57,30.05,29.95,8,1,8,0.00
2012-11-5,80,73,68,65,63,61,81,71,53,29.96,29.90,6,1,6,0.00
2012-11-6,83,74,67,66,63,61,82,69,49,29.90,29.79,10,2,10,0.00
2012-11-7,74,68,61,63,57,49,81,68,55,29.94,29.80,13,3,13,0.00
2012-11-8,71,64,57,52,48,42,72,59,37,30.05,29.92,10,2,10,0.00
2012-11-9,76,68,60,59,54,51,77,62,48,30.14,30.03,12,4,12,0.00
2012-11-10,79,73,70,60,57,54,65,57,48,30.19,30.11,14,5,14,0.00
2012-11-11,83,77,73,66,62,55,70,60,45,30.19,30.11,14,7,14,0.00
2012-11-12,83,78,75,70,67,65,74,70,63,30.14,30.08,14,7,14,0.00
2012-11-13,84,78,74,68,66,64,73,67,56,30.08,30.02,10,4,10,0.00
2012-11-14,84,77,74,70,66,64,75,69,62,30.07,29.99,8,4,8,0.00
2012-11-15,83,75,68,68,65,61,80,71,56,30.04,29.99,7,2,7,0.00
2012-11-16,79,72,67,68,64,62,83,77,66,30.04,29.99,64,2,64,0.03
2012-11-17,80,74,68,67,65,63,86,74,64,30.03,29.97,9,2,9,0.09
2012-11-18,81,74,69,68,65,62,84,75,64,30.04,29.97,13,4,13,0.08
2012-11-19,75,68,63,63,60,56,80,74,64,30.06,29.98,8,3,8,0.00
2012-11-20,75,68,63,65,60,56,82,76,70,29.99,29.87,10,3,10,0.00
2012-11-21,78,68,62,64,58,54,81,71,55,29.99,29.88,13,3,13,0.00
2012-11-22,75,66,60,59,54,50,73,64,51,30.06,29.94,13,4,13,0.00
2012-11-23,77,66,60,61,55,51,76,68,53,30.07,30.00,13,3,13,0.00
2012-11-24,74,65,56,58,53,47,79,66,48,30.04,29.95,7,1,7,0.00
2012-11-25,75,66,58,61,56,51,79,71,56,30.07,29.98,6,1,6,0.00
2012-11-26,79,72,64,65,61,58,81,70,57,30.14,30.04,13,3,13,0.00
2012-11-27,82,76,72,67,64,62,75,67,56,30.13,30.04,10,4,10,0.00
2012-11-28,81,72,68,67,64,62,83,75,58,30.12,29.99,12,2,12,0.17
2012-11-29,80,74,67,67,63,59,82,70,63,30.14,30.06,14,6,14,0.00
2012-11-30,78,74,72,65,62,60,70,67,61,30.15,30.08,13,6,13,0.00
2012-12-1,81,75,72,66,63,61,73,67,58,30.14,30.06,13,6,13,0.00
2012-12-2,82,76,73,68,65,63,73,69,61,30.17,30.08,14,6,14,0.00
2012-12-3,80,75,72,66,61,52,72,63,48,30.18,30.10,12,6,12,0.00
2012-12-4,81,75,72,64,61,54,70,62,51,30.17,30.09,13,5,13,0.00
2012-12-5,81,76,71,66,64,62,77,67,55,30.09,29.97,12,4,12,0.00
2012-12-6,82,76,72,70,66,64,77,71,63,29.98,29.88,15,4,15,0.00
2012-12-7,82,75,70,70,67,64,83,75,65,29.95,29.86,12,4,12,0.06
2012-12-8,85,78,73,72,69,65,80,74,65,29.98,29.90,12,5,12,0.00
2012-12-9,85,78,72,74,71,66,84,79,69,30.02,29.95,9,3,9,0.00
2012-12-10,85,78,73,75,72,68,87,80,72,29.98,29.89,19,5,19,0.00
2012-12-11,87,80,74,76,72,68,83,78,67,30.01,29.88,15,4,15,0.00
2012-12-12,84,78,74,73,70,68,84,78,68,30.02,29.97,14,4,14,0.00
2012-12-13,79,74,68,72,67,62,85,78,69,30.05,29.98,12,2,12,0.00
2012-12-14,78,72,66,66,63,60,86,74,57,30.06,29.99,14,2,14,0.08
2012-12-15,81,76,72,67,64,62,74,69,61,30.04,29.97,10,3,10,0.00
2012-12-16,82,76,73,70,67,64,79,74,65,30.01,29.92,12,4,12,0.00
2012-12-17,83,75,68,68,66,62,83,73,58,29.93,29.85,7,1,7,0.00
2012-12-18,83,75,69,69,66,64,85,75,61,29.97,29.86,9,1,9,0.00
2012-12-19,80,72,64,66,62,56,79,70,57,30.04,29.95,8,2,8,0.00
2012-12-20,82,76,71,68,65,61,77,69,60,30.04,29.94,8,2,8,0.00
2012-12-21,81,66,55,66,48,38,80,54,34,30.10,29.92,14,4,14,0.00
2012-12-22,65,56,47,40,35,28,64,46,26,30.17,30.08,8,1,8,0.00
2012-12-23,72,62,52,58,47,35,69,58,51,30.15,30.08,9,2,9,0.00
2012-12-24,77,68,59,61,56,50,75,68,56,30.08,29.95,13,2,13,0.00
2012-12-25,79,71,62,64,60,55,78,70,59,29.99,29.91,13,4,13,0.00
2012-12-26,82,73,66,69,65,57,83,74,64,29.93,29.81,14,5,14,0.00
2012-12-27,71,63,57,57,51,47,76,65,44,30.02,29.93,9,2,9,0.00
2012-12-28,76,68,57,68,60,48,83,76,68,30.02,29.93,10,4,10,0.00
2012-12-29,83,75,65,72,68,54,87,78,62,30.05,29.88,14,4,14,0.00
2012-12-30,69,63,55,56,52,45,72,66,62,30.22,30.05,14,5,14,0.00
2012-12-31,76,70,66,61,58,54,68,65,58,30.23,30.13,13,6,13,0.00
2013-1-1,80,74,68,64,61,58,72,65,58,30.14,30.01,17,5,17,0.00